createdAt,value
2023-05-21T00:00:32.604Z,10.15
2023-05-21T00:01:32.534Z,12.88
2023-05-21T00:02:32.582Z,13.27
2023-05-21T00:03:32.632Z,14.42
2023-05-21T00:04:32.521Z,15.27
2023-05-21T00:05:32.551Z,17.19
2023-05-21T00:06:33.051Z,21.62
2023-05-21T00:07:32.525Z,24.90
2023-05-21T00:08:32.493Z,27.81
2023-05-21T00:09:32.491Z,33.21
2023-05-21T00:10:32.495Z,43.67
2023-05-21T00:11:32.450Z,49.85
2023-05-21T00:12:32.524Z,48.62
2023-05-21T00:13:32.482Z,55.13
2023-05-21T00:14:32.491Z,63.73
2023-05-21T00:15:32.447Z,62.97
2023-05-21T00:16:32.501Z,50.08
2023-05-21T00:17:32.407Z,30.09
2023-05-21T00:18:32.582Z,20.10
2023-05-21T00:19:32.596Z,16.32
2023-05-21T00:20:32.615Z,17.25
2023-05-21T00:21:32.570Z,18.87
2023-05-21T00:22:32.575Z,21.60
2023-05-21T00:23:32.668Z,25.98
2023-05-21T00:24:32.613Z,29.75
2023-05-21T00:25:32.697Z,33.06
2023-05-21T00:26:32.714Z,36.74
2023-05-21T00:27:33.542Z,48.56
2023-05-21T00:28:32.797Z,57.70
2023-05-21T00:29:32.851Z,62.95
2023-05-21T00:30:33.068Z,70.70
2023-05-21T00:31:32.902Z,108.92
2023-05-21T00:32:32.913Z,140.21
2023-05-21T00:33:33.541Z,182.32
2023-05-21T00:34:32.997Z,174.16
2023-05-21T00:35:33.073Z,172.88
2023-05-21T00:36:33.090Z,182.20
2023-05-21T00:37:33.200Z,205.65
2023-05-21T00:38:33.192Z,223.64
2023-05-21T00:39:33.353Z,235.71
2023-05-21T00:40:33.320Z,254.73
2023-05-21T00:41:33.376Z,272.75
2023-05-21T00:42:33.424Z,261.42
2023-05-21T00:43:33.504Z,246.96
2023-05-21T00:44:33.552Z,244.36
2023-05-21T00:45:33.677Z,227.55
2023-05-21T00:46:33.687Z,227.41
2023-05-21T00:47:33.695Z,227.57
2023-05-21T00:48:33.802Z,200.25
2023-05-21T00:49:33.803Z,208.94
2023-05-21T00:50:33.895Z,212.71
2023-05-21T00:51:33.926Z,212.58
2023-05-21T00:52:33.967Z,170.70
2023-05-21T00:53:34.061Z,173.37
2023-05-21T00:54:34.124Z,202.83
2023-05-21T00:55:34.312Z,236.40
2023-05-21T00:56:34.301Z,258.18
2023-05-21T00:57:34.291Z,314.77
2023-05-21T00:58:34.419Z,355.14
2023-05-21T00:59:35.343Z,355.15
2023-05-21T01:00:34.373Z,346.25
2023-05-21T01:01:34.448Z,362.11
2023-05-21T01:02:34.408Z,391.93
2023-05-21T01:03:34.362Z,416.78
2023-05-21T01:04:34.302Z,344.77
2023-05-21T01:05:34.514Z,324.35
2023-05-21T01:06:35.305Z,324.85
2023-05-21T01:07:34.341Z,333.06
2023-05-21T01:08:34.322Z,348.67
2023-05-21T01:09:34.266Z,411.35
2023-05-21T01:10:34.306Z,455.66
2023-05-21T01:11:34.272Z,481.60
2023-05-21T01:12:34.274Z,528.46
2023-05-21T01:13:34.292Z,576.95
2023-05-21T01:14:34.966Z,603.12
2023-05-21T01:15:34.397Z,605.53
2023-05-21T01:16:34.307Z,634.81
2023-05-21T01:17:34.493Z,631.32
2023-05-21T01:18:34.281Z,568.74
2023-05-21T01:19:34.293Z,475.22
2023-05-21T01:20:34.557Z,414.43
2023-05-21T01:21:34.212Z,401.99
2023-05-21T01:22:34.181Z,376.22
2023-05-21T01:23:34.241Z,344.01
2023-05-21T01:24:34.238Z,350.79
2023-05-21T01:25:34.542Z,380.26
2023-05-21T01:26:34.242Z,393.56
2023-05-21T01:27:35.023Z,386.52
2023-05-21T01:28:34.296Z,381.67
2023-05-21T01:29:34.292Z,379.47
2023-05-21T01:30:34.310Z,403.05
2023-05-21T01:31:34.338Z,412.13
2023-05-21T01:32:34.429Z,422.25
2023-05-21T01:33:34.422Z,390.47
2023-05-21T01:34:34.446Z,347.16
2023-05-21T01:35:34.530Z,322.51
2023-05-21T01:36:34.414Z,316.88
2023-05-21T01:37:34.417Z,300.14
2023-05-21T01:38:35.055Z,353.61
2023-05-21T01:39:34.488Z,448.23
2023-05-21T01:40:34.581Z,476.83
2023-05-21T01:41:34.539Z,430.22
2023-05-21T01:42:34.544Z,380.06
2023-05-21T01:43:34.561Z,333.46
2023-05-21T01:44:34.604Z,285.82
2023-05-21T01:45:34.726Z,260.72
2023-05-21T01:46:34.801Z,251.01
2023-05-21T01:47:34.714Z,249.06
2023-05-21T01:48:34.696Z,233.76
2023-05-21T01:49:34.712Z,221.41
2023-05-21T01:50:34.756Z,233.79
2023-05-21T01:51:34.767Z,239.19
2023-05-21T01:52:34.766Z,224.82
2023-05-21T01:53:34.796Z,198.12
2023-05-21T01:54:34.815Z,163.29
2023-05-21T01:55:35.026Z,111.19
2023-05-21T01:56:34.851Z,89.40
2023-05-21T01:57:34.900Z,74.20
2023-05-21T01:58:34.911Z,61.41
2023-05-21T01:59:34.956Z,58.74
2023-05-21T02:00:35.092Z,56.32
2023-05-21T02:01:35.073Z,54.10
2023-05-21T02:02:35.588Z,51.56
2023-05-21T02:03:36.224Z,49.40
2023-05-21T02:04:35.193Z,47.15
2023-05-21T02:05:35.427Z,49.42
2023-05-21T02:06:35.177Z,66.60
2023-05-21T02:07:35.229Z,147.32
2023-05-21T02:08:35.251Z,289.82
2023-05-21T02:09:35.279Z,454.97
2023-05-21T02:10:35.364Z,631.05
2023-05-21T02:11:35.352Z,761.10
2023-05-21T02:12:35.373Z,941.08
2023-05-21T02:13:35.390Z,859.68
2023-05-21T02:14:35.422Z,841.40
2023-05-21T02:15:35.743Z,766.76
2023-05-21T02:16:35.654Z,671.39
2023-05-21T02:17:35.620Z,506.80
2023-05-21T02:18:38.594Z,376.42
2023-05-21T02:19:36.709Z,298.15
2023-05-21T02:20:35.604Z,240.97
2023-05-21T02:21:35.641Z,218.19
2023-05-21T02:22:35.617Z,210.53
2023-05-21T02:23:35.688Z,197.99
2023-05-21T02:24:35.591Z,164.41
2023-05-21T02:25:35.721Z,159.11
2023-05-21T02:26:35.568Z,151.62
2023-05-21T02:27:35.607Z,149.74
2023-05-21T02:28:35.581Z,147.77
2023-05-21T02:29:35.636Z,135.54
2023-05-21T02:30:36.660Z,131.18
2023-05-21T02:31:35.581Z,133.42
2023-05-21T02:32:35.588Z,124.95
2023-05-21T02:33:35.544Z,125.77
2023-05-21T02:34:35.527Z,128.20
2023-05-21T02:35:35.637Z,129.62
2023-05-21T02:36:35.610Z,129.36
2023-05-21T02:37:35.548Z,128.24
2023-05-21T02:38:35.503Z,125.10
2023-05-21T02:39:35.532Z,122.93
2023-05-21T02:40:35.665Z,126.06
2023-05-21T02:41:35.539Z,150.03
2023-05-21T02:42:35.638Z,186.21
2023-05-21T02:43:35.661Z,212.52
2023-05-21T02:44:36.649Z,211.88
2023-05-21T02:45:35.891Z,211.73
2023-05-21T02:46:35.613Z,214.18
2023-05-21T02:47:35.646Z,205.64
2023-05-21T02:48:35.625Z,190.78
2023-05-21T02:49:35.592Z,189.92
2023-05-21T02:50:35.639Z,191.06
2023-05-21T02:51:35.632Z,177.29
2023-05-21T02:52:35.572Z,149.23
2023-05-21T02:53:35.611Z,122.07
2023-05-21T02:54:36.578Z,110.27
2023-05-21T02:55:36.047Z,83.75
2023-05-21T02:56:35.777Z,73.54
2023-05-21T02:57:35.833Z,69.49
2023-05-21T02:58:35.837Z,68.08
2023-05-21T02:59:35.896Z,62.52
2023-05-21T03:00:35.911Z,65.42
2023-05-21T03:01:35.931Z,63.91
2023-05-21T03:02:35.982Z,68.31
2023-05-21T03:03:36.156Z,58.99
2023-05-21T03:04:35.978Z,58.05
2023-05-21T03:05:36.239Z,56.60
2023-05-21T03:06:35.941Z,54.32
2023-05-21T03:07:35.991Z,53.36
2023-05-21T03:08:35.979Z,51.47
2023-05-21T03:09:35.980Z,52.78
2023-05-21T03:10:35.968Z,47.92
2023-05-21T03:11:35.991Z,44.75
2023-05-21T03:12:36.022Z,45.83
2023-05-21T03:13:35.995Z,44.17
2023-05-21T03:14:36.000Z,47.22
2023-05-21T03:15:36.260Z,49.72
2023-05-21T03:16:36.079Z,48.67
2023-05-21T03:17:36.089Z,48.54
2023-05-21T03:18:36.148Z,58.50
2023-05-21T03:19:36.093Z,67.44
2023-05-21T03:20:36.069Z,80.51
2023-05-21T03:21:36.118Z,100.03
2023-05-21T03:22:36.121Z,120.66
2023-05-21T03:23:36.089Z,140.85
2023-05-21T03:24:36.146Z,166.50
2023-05-21T03:25:36.782Z,163.37
2023-05-21T03:26:36.189Z,113.49
2023-05-21T03:27:36.168Z,87.55
2023-05-21T03:28:36.174Z,72.31
2023-05-21T03:29:36.238Z,67.81
2023-05-21T03:30:36.217Z,67.92
2023-05-21T03:31:36.284Z,70.41
2023-05-21T03:32:36.231Z,65.39
2023-05-21T03:33:36.273Z,70.97
2023-05-21T03:34:36.211Z,73.33
2023-05-21T03:35:36.507Z,73.37
2023-05-21T03:36:36.212Z,71.53
2023-05-21T03:37:36.235Z,72.36
2023-05-21T03:38:37.219Z,76.59
2023-05-21T03:39:36.247Z,76.72
2023-05-21T03:40:36.205Z,70.80
2023-05-21T03:41:36.231Z,68.83
2023-05-21T03:42:36.264Z,65.33
2023-05-21T03:43:36.328Z,66.50
2023-05-21T03:44:36.231Z,67.15
2023-05-21T03:45:36.689Z,68.84
2023-05-21T03:46:36.336Z,69.91
2023-05-21T03:47:36.312Z,67.44
2023-05-21T03:48:36.208Z,67.39
2023-05-21T03:49:36.251Z,64.53
2023-05-21T03:50:36.253Z,69.23
2023-05-21T03:51:36.229Z,72.87
2023-05-21T03:52:36.278Z,84.29
2023-05-21T03:53:36.248Z,85.39
2023-05-21T03:54:36.260Z,89.79
2023-05-21T03:55:36.875Z,98.43
2023-05-21T03:56:36.231Z,102.38
2023-05-21T03:57:36.300Z,103.98
2023-05-21T03:58:36.285Z,95.04
2023-05-21T03:59:36.348Z,85.76
2023-05-21T04:00:36.289Z,80.65
2023-05-21T04:01:36.352Z,76.16
2023-05-21T04:02:36.396Z,68.23
2023-05-21T04:03:37.844Z,68.16
2023-05-21T04:04:36.300Z,70.40
2023-05-21T04:05:36.815Z,71.75
2023-05-21T04:06:36.280Z,69.86
2023-05-21T04:07:36.225Z,64.95
2023-05-21T04:08:36.246Z,56.51
2023-05-21T04:09:36.918Z,52.00
2023-05-21T04:10:37.125Z,48.34
2023-05-21T04:11:36.192Z,47.65
2023-05-21T04:12:36.252Z,49.69
2023-05-21T04:13:36.217Z,60.71
2023-05-21T04:14:36.182Z,86.56
2023-05-21T04:15:36.579Z,115.77
2023-05-21T04:16:36.263Z,161.67
2023-05-21T04:17:36.228Z,232.61
2023-05-21T04:18:36.197Z,303.33
2023-05-21T04:19:36.192Z,364.70
2023-05-21T04:20:36.157Z,410.33
2023-05-21T04:21:36.116Z,443.41
2023-05-21T04:24:06.449Z,0.50
2023-05-21T04:25:12.289Z,0.50
2023-05-21T04:25:56.220Z,0.50
2023-05-21T04:27:06.265Z,0.50
2023-05-21T04:29:31.007Z,0.50
2023-05-21T04:30:26.029Z,0.50
2023-05-21T04:32:35.697Z,0.50
2023-05-21T04:33:35.407Z,0.50
2023-05-21T04:34:35.379Z,0.50
2023-05-21T04:35:35.568Z,0.50
2023-05-21T04:36:36.121Z,0.50
2023-05-21T04:37:35.417Z,0.50
2023-05-21T04:38:35.349Z,0.50
2023-05-21T04:39:35.411Z,0.51
2023-05-21T04:40:36.635Z,0.53
2023-05-21T04:41:35.334Z,0.53
2023-05-21T04:42:35.344Z,0.50
2023-05-21T04:43:35.358Z,0.51
2023-05-21T04:44:35.368Z,0.52
2023-05-21T04:45:35.688Z,0.51
2023-05-21T04:46:35.437Z,0.51
2023-05-21T04:48:55.457Z,0.50
2023-05-21T04:49:55.304Z,0.50
2023-05-21T04:50:55.288Z,0.50
2023-05-21T04:51:55.270Z,0.50
2023-05-21T04:52:55.240Z,0.50
2023-05-21T04:53:55.267Z,0.51
2023-05-21T04:54:55.260Z,0.54
2023-05-21T04:55:55.509Z,0.50
2023-05-21T04:56:55.279Z,0.51
2023-05-21T04:57:55.269Z,0.45
2023-05-21T04:58:55.219Z,0.36
2023-05-21T04:59:55.266Z,0.37
2023-05-21T05:00:55.223Z,0.41
2023-05-21T05:01:55.177Z,0.41
2023-05-21T05:02:55.275Z,0.49
2023-05-21T05:03:55.223Z,0.51
2023-05-21T05:04:55.201Z,0.52
2023-05-21T05:05:55.166Z,0.51
2023-05-21T05:06:55.171Z,0.54
2023-05-21T05:07:55.154Z,0.56
2023-05-21T05:08:55.156Z,0.60
2023-05-21T05:09:55.137Z,0.66
2023-05-21T05:10:55.138Z,0.70
2023-05-21T05:11:55.106Z,0.79
2023-05-21T05:12:55.098Z,0.94
2023-05-21T05:13:55.123Z,0.90
2023-05-21T05:14:55.121Z,0.98
2023-05-21T05:15:55.508Z,1.11
2023-05-21T05:16:55.140Z,1.19
2023-05-21T05:17:55.114Z,1.22
2023-05-21T05:18:55.187Z,1.17
2023-05-21T05:21:14.735Z,0.50
2023-05-21T05:22:14.660Z,0.50
2023-05-21T05:23:14.568Z,0.50
2023-05-21T05:24:14.607Z,0.50
2023-05-21T05:25:14.626Z,0.50
2023-05-21T05:26:14.672Z,0.51
2023-05-21T05:27:14.668Z,0.55
2023-05-21T05:28:14.577Z,0.60
2023-05-21T05:29:14.567Z,0.61
2023-05-21T05:30:14.496Z,0.60
2023-05-21T05:31:14.567Z,0.60
2023-05-21T05:32:14.603Z,0.57
2023-05-21T05:33:14.533Z,0.54
2023-05-21T05:34:14.501Z,0.55
2023-05-21T05:35:14.514Z,0.57
2023-05-21T05:36:14.542Z,0.59
2023-05-21T05:37:14.487Z,0.52
2023-05-21T05:38:14.462Z,0.52
2023-05-21T05:39:14.475Z,0.51
2023-05-21T05:40:14.509Z,0.50
2023-05-21T05:41:14.467Z,0.50
2023-05-21T05:42:14.423Z,0.51
2023-05-21T05:43:14.537Z,0.50
2023-05-21T05:44:14.404Z,0.50
2023-05-21T05:45:14.417Z,0.50
2023-05-21T05:46:14.833Z,0.50
2023-05-21T05:47:14.402Z,0.53
2023-05-21T05:48:14.406Z,0.52
2023-05-21T05:49:14.475Z,0.45
2023-05-21T05:50:14.364Z,0.39
2023-05-21T05:51:29.350Z,0.49
2023-05-21T05:52:14.383Z,0.49
2023-05-21T05:53:14.373Z,0.50
2023-05-21T05:54:14.363Z,0.49
2023-05-21T05:55:14.379Z,0.35
2023-05-21T05:56:14.802Z,0.34
2023-05-21T05:57:14.325Z,0.36
2023-05-21T05:58:14.358Z,0.39
2023-05-21T05:59:14.326Z,0.43
2023-05-21T06:00:14.304Z,0.45
2023-05-21T06:01:14.328Z,0.48
2023-05-21T06:02:14.365Z,0.51
2023-05-21T06:03:14.527Z,0.51
2023-05-21T06:04:14.256Z,0.53
2023-05-21T06:05:14.307Z,0.54
2023-05-21T06:06:14.410Z,0.49
2023-05-21T06:07:14.248Z,0.50
2023-05-21T06:08:14.262Z,0.53
2023-05-21T06:09:14.253Z,0.60
2023-05-21T06:10:14.279Z,0.54
2023-05-21T06:11:14.347Z,0.50
2023-05-21T06:12:15.080Z,0.50
2023-05-21T06:13:14.215Z,0.51
2023-05-21T06:14:14.188Z,0.57
2023-05-21T06:15:14.186Z,0.59
2023-05-21T06:16:14.246Z,0.55
2023-05-21T06:17:14.173Z,0.57
2023-05-21T06:18:14.159Z,0.65
2023-05-21T06:19:14.198Z,0.76
2023-05-21T06:20:14.160Z,0.77
2023-05-21T06:21:14.167Z,0.75
2023-05-21T06:22:14.229Z,0.67
2023-05-21T06:23:14.188Z,0.59
2023-05-21T06:24:14.163Z,0.55
2023-05-21T06:25:14.088Z,0.56
2023-05-21T06:26:14.138Z,0.44
2023-05-21T06:27:14.200Z,0.46
2023-05-21T06:28:14.140Z,0.53
2023-05-21T06:29:15.535Z,0.50
2023-05-21T06:30:14.154Z,0.51
2023-05-21T06:31:14.097Z,0.50
2023-05-21T06:32:14.078Z,0.48
2023-05-21T06:33:14.157Z,0.39
2023-05-21T06:34:14.061Z,0.45
2023-05-21T06:35:14.088Z,0.54
2023-05-21T06:36:14.074Z,0.50
2023-05-21T06:37:14.047Z,0.54
2023-05-21T06:38:14.112Z,0.50
2023-05-21T06:39:14.045Z,0.52
2023-05-21T06:40:14.026Z,0.54
2023-05-21T06:41:13.997Z,0.54
2023-05-21T06:42:14.050Z,0.55
2023-05-21T06:43:14.032Z,0.56
2023-05-21T06:44:14.010Z,0.55
2023-05-21T06:45:13.991Z,0.60
2023-05-21T06:46:14.379Z,0.52
2023-05-21T06:47:14.020Z,0.58
2023-05-21T06:48:13.953Z,0.63
2023-05-21T06:49:14.456Z,0.70
2023-05-21T06:50:13.955Z,0.61
2023-05-21T06:51:13.983Z,0.62
2023-05-21T06:52:13.951Z,0.70
2023-05-21T06:53:13.949Z,0.63
2023-05-21T06:54:13.957Z,0.56
2023-05-21T06:55:13.954Z,0.51
2023-05-21T06:56:13.959Z,0.50
2023-05-21T06:57:13.900Z,0.51
2023-05-21T06:58:13.922Z,0.50
2023-05-21T06:59:13.931Z,0.51
2023-05-21T07:00:13.888Z,0.51
2023-05-21T07:01:14.415Z,0.50
2023-05-21T07:02:13.872Z,0.56
2023-05-21T07:03:14.018Z,0.58
2023-05-21T07:04:13.849Z,0.50
2023-05-21T07:05:13.932Z,0.52
2023-05-21T07:06:13.934Z,0.53
2023-05-21T07:07:13.976Z,0.50
2023-05-21T07:08:14.053Z,0.53
2023-05-21T07:09:14.138Z,0.56
2023-05-21T07:10:14.175Z,0.47
2023-05-21T07:11:14.171Z,0.51
2023-05-21T07:12:14.233Z,0.63
2023-05-21T07:13:14.284Z,0.67
2023-05-21T07:14:14.345Z,0.73
2023-05-21T07:15:14.372Z,0.66
2023-05-21T07:16:14.821Z,0.61
2023-05-21T07:17:14.416Z,0.55
2023-05-21T07:18:14.490Z,0.50
2023-05-21T07:19:14.555Z,0.60
2023-05-21T07:20:14.486Z,0.64
2023-05-21T07:21:14.894Z,0.68
2023-05-21T07:22:14.501Z,0.73
2023-05-21T07:23:14.528Z,0.86
2023-05-21T07:24:14.505Z,0.90
2023-05-21T07:25:14.497Z,0.84
2023-05-21T07:26:14.523Z,0.75
2023-05-21T07:27:25.318Z,0.73
2023-05-21T07:28:15.519Z,0.73
2023-05-21T07:29:14.492Z,0.76
2023-05-21T07:30:14.533Z,0.75
2023-05-21T07:31:14.557Z,0.80
2023-05-21T07:32:14.516Z,0.76
2023-05-21T07:33:14.441Z,0.88
2023-05-21T07:34:14.470Z,0.87
2023-05-21T07:35:14.471Z,0.74
2023-05-21T07:36:14.498Z,0.68
2023-05-21T07:37:14.581Z,0.69
2023-05-21T07:38:14.408Z,0.64
2023-05-21T07:39:14.471Z,0.58
2023-05-21T07:40:14.482Z,0.71
2023-05-21T07:41:15.572Z,0.70
2023-05-21T07:42:14.793Z,0.61
2023-05-21T07:43:14.760Z,0.66
2023-05-21T07:44:14.834Z,0.67
2023-05-21T07:45:14.806Z,0.61
2023-05-21T07:46:14.882Z,0.61
2023-05-21T07:47:14.849Z,0.68
2023-05-21T07:48:14.860Z,0.75
2023-05-21T07:49:14.905Z,0.42
2023-05-21T07:50:14.920Z,0.34
2023-05-21T07:51:15.017Z,0.35
2023-05-21T07:52:14.920Z,0.47
2023-05-21T07:53:14.920Z,0.60
2023-05-21T07:54:15.005Z,0.65
2023-05-21T07:55:14.976Z,0.52
2023-05-21T07:56:14.995Z,0.49
2023-05-21T07:57:15.036Z,0.56
2023-05-21T07:58:14.956Z,0.61
2023-05-21T07:59:15.050Z,0.76
2023-05-21T08:00:15.225Z,0.56
2023-05-21T08:01:15.237Z,0.48
2023-05-21T08:02:15.243Z,0.50
2023-05-21T08:03:15.578Z,0.39
2023-05-21T08:04:15.462Z,0.38
2023-05-21T08:05:15.513Z,0.34
2023-05-21T08:06:15.486Z,0.45
2023-05-21T08:07:15.585Z,0.58
2023-05-21T08:08:15.577Z,0.51
2023-05-21T08:09:15.657Z,0.62
2023-05-21T08:10:17.747Z,0.64
2023-05-21T08:11:15.719Z,0.45
2023-05-21T08:12:15.689Z,0.47
2023-05-21T08:13:15.688Z,0.51
2023-05-21T08:14:15.683Z,0.66
2023-05-21T08:15:15.767Z,0.76
2023-05-21T08:16:15.703Z,0.59
2023-05-21T08:17:15.688Z,0.82
2023-05-21T08:18:15.653Z,1.02
2023-05-21T08:19:15.692Z,1.11
2023-05-21T08:20:15.643Z,0.96
2023-05-21T08:21:15.894Z,1.11
2023-05-21T08:22:15.638Z,0.88
2023-05-21T08:23:15.611Z,0.64
2023-05-21T08:24:15.621Z,0.66
2023-05-21T08:25:15.607Z,0.57
2023-05-21T08:26:15.613Z,0.68
2023-05-21T08:27:15.635Z,0.71
2023-05-21T08:28:15.582Z,0.74
2023-05-21T08:29:15.576Z,0.69
2023-05-21T08:30:15.624Z,0.64
2023-05-21T08:31:15.607Z,0.84
2023-05-21T08:32:15.657Z,0.95
2023-05-21T08:33:15.600Z,0.87
2023-05-21T08:34:15.561Z,1.00
2023-05-21T08:35:15.518Z,0.70
2023-05-21T08:36:15.878Z,0.77
2023-05-21T08:37:15.537Z,0.85
2023-05-21T08:38:15.512Z,1.06
2023-05-21T08:39:15.501Z,1.10
2023-05-21T08:40:15.550Z,0.99
2023-05-21T08:41:15.502Z,1.05
2023-05-21T08:42:22.558Z,1.13
2023-05-21T08:43:16.510Z,0.76
2023-05-21T08:44:15.476Z,0.76
2023-05-21T08:45:15.464Z,0.86
2023-05-21T08:46:15.516Z,0.69
2023-05-21T08:47:15.464Z,0.57
2023-05-21T08:48:15.502Z,0.52
2023-05-21T08:49:15.419Z,0.60
2023-05-21T08:50:15.456Z,0.62
2023-05-21T08:51:15.519Z,0.61
2023-05-21T08:52:15.441Z,0.51
2023-05-21T08:53:24.073Z,0.54
2023-05-21T08:54:16.443Z,0.48
2023-05-21T08:55:15.441Z,0.34
2023-05-21T08:56:15.402Z,0.34
2023-05-21T08:57:15.406Z,0.39
2023-05-21T08:58:15.362Z,0.38
2023-05-21T08:59:15.402Z,0.46
2023-05-21T09:00:15.368Z,0.52
2023-05-21T09:01:15.432Z,0.47
2023-05-21T09:02:15.423Z,0.57
2023-05-21T09:03:15.374Z,0.69
2023-05-21T09:04:20.872Z,0.82
2023-05-21T09:05:16.393Z,0.67
2023-05-21T09:06:15.399Z,0.64
2023-05-21T09:07:15.435Z,0.34
2023-05-21T09:08:15.474Z,0.34
2023-05-21T09:09:15.521Z,0.34
2023-05-21T09:10:15.606Z,0.34
2023-05-21T09:11:15.606Z,0.34
2023-05-21T09:12:15.620Z,0.34
2023-05-21T09:13:15.637Z,0.34
2023-05-21T09:14:15.683Z,0.34
2023-05-21T09:15:15.686Z,0.34
2023-05-21T09:16:15.781Z,0.34
2023-05-21T09:17:15.777Z,0.34
2023-05-21T09:18:15.801Z,0.34
2023-05-21T09:19:15.998Z,0.34
2023-05-21T09:20:15.823Z,0.34
2023-05-21T09:21:15.879Z,0.34
2023-05-21T09:22:15.858Z,0.34
2023-05-21T09:23:15.896Z,0.34
2023-05-21T09:24:15.881Z,0.34
2023-05-21T09:25:15.914Z,0.34
2023-05-21T09:26:16.393Z,0.34
2023-05-21T09:27:15.949Z,0.34
2023-05-21T09:28:15.984Z,0.34
2023-05-21T09:29:15.996Z,0.34
2023-05-21T09:30:15.976Z,0.34
2023-05-21T09:31:16.951Z,0.34
2023-05-21T09:32:16.040Z,0.34
2023-05-21T09:33:16.021Z,0.34
2023-05-21T09:34:16.059Z,0.34
2023-05-21T09:35:16.082Z,0.37
2023-05-21T09:36:16.383Z,0.51
2023-05-21T09:37:26.607Z,0.46
2023-05-21T09:38:17.118Z,0.46
2023-05-21T09:39:16.138Z,0.49
2023-05-21T09:40:16.125Z,0.47
2023-05-21T09:41:19.493Z,0.41
2023-05-21T09:42:17.081Z,0.46
2023-05-21T09:43:16.090Z,0.46
2023-05-21T09:44:16.062Z,0.47
2023-05-21T09:45:16.124Z,0.50
2023-05-21T09:46:16.131Z,0.51
2023-05-21T09:47:16.038Z,0.56
2023-05-21T09:48:16.048Z,0.41
2023-05-21T09:49:16.036Z,0.34
2023-05-21T09:50:16.003Z,0.38
2023-05-21T09:51:16.329Z,0.49
2023-05-21T09:52:16.022Z,0.46
2023-05-21T09:53:15.984Z,0.57
2023-05-21T09:54:16.006Z,0.53
2023-05-21T09:55:16.017Z,0.50
2023-05-21T09:56:16.073Z,0.54
2023-05-21T09:57:16.104Z,0.57
2023-05-21T09:58:16.128Z,0.59
2023-05-21T09:59:16.178Z,0.58
2023-05-21T10:00:16.285Z,0.64
2023-05-21T10:01:16.313Z,0.67
2023-05-21T10:02:16.490Z,0.68
2023-05-21T10:03:16.491Z,0.61
2023-05-21T10:04:16.520Z,0.49
2023-05-21T10:05:16.473Z,0.57
2023-05-21T10:06:16.475Z,0.57
2023-05-21T10:07:16.625Z,0.63
2023-05-21T10:08:16.570Z,0.67
2023-05-21T10:09:16.606Z,0.76
2023-05-21T10:10:16.679Z,0.70
2023-05-21T10:11:16.757Z,0.76
2023-05-21T10:12:16.753Z,0.98
2023-05-21T10:13:16.846Z,1.04
2023-05-21T10:14:16.868Z,0.95
2023-05-21T10:15:16.974Z,0.72
2023-05-21T10:16:17.043Z,0.75
2023-05-21T10:17:17.039Z,0.90
2023-05-21T10:18:17.239Z,1.04
2023-05-21T10:19:17.155Z,1.08
2023-05-21T10:20:17.228Z,1.27
2023-05-21T10:21:17.223Z,1.31
2023-05-21T10:22:17.255Z,1.30
2023-05-21T10:23:17.260Z,1.38
2023-05-21T10:24:17.331Z,0.98
2023-05-21T10:25:17.296Z,0.80
2023-05-21T10:26:17.392Z,0.98
2023-05-21T10:27:17.423Z,0.50
2023-05-21T10:28:17.425Z,0.62
2023-05-21T10:29:19.667Z,0.71
2023-05-21T10:30:17.536Z,0.50
2023-05-21T10:31:17.586Z,0.53
2023-05-21T10:32:17.806Z,0.55
2023-05-21T10:33:17.719Z,0.66
2023-05-21T10:34:17.758Z,0.78
2023-05-21T10:35:17.823Z,0.92
2023-05-21T10:36:17.806Z,1.14
2023-05-21T10:37:17.798Z,1.11
2023-05-21T10:38:17.754Z,1.01
2023-05-21T10:39:17.806Z,1.13
2023-05-21T10:40:17.807Z,0.83
2023-05-21T10:41:17.918Z,0.61
2023-05-21T10:42:17.826Z,0.48
2023-05-21T10:43:17.859Z,0.50
2023-05-21T10:44:17.868Z,0.58
2023-05-21T10:45:17.864Z,0.65
2023-05-21T10:46:17.950Z,0.66
2023-05-21T10:47:17.964Z,0.71
2023-05-21T10:48:18.157Z,0.83
2023-05-21T10:49:18.065Z,0.67
2023-05-21T10:50:18.088Z,0.51
2023-05-21T10:51:18.133Z,0.51
2023-05-21T10:52:18.195Z,0.53
2023-05-21T10:53:18.230Z,0.65
2023-05-21T10:54:18.311Z,0.77
2023-05-21T10:55:18.361Z,0.88
2023-05-21T10:56:18.484Z,0.94
2023-05-21T10:57:18.466Z,0.78
2023-05-21T10:58:18.705Z,0.63
2023-05-21T10:59:18.600Z,0.49
2023-05-21T11:00:18.664Z,0.50
2023-05-21T11:01:18.598Z,0.46
2023-05-21T11:02:18.566Z,0.50
2023-05-21T11:03:18.657Z,0.53
2023-05-21T11:04:18.626Z,0.54
2023-05-21T11:05:18.671Z,0.56
2023-05-21T11:06:18.703Z,0.50
2023-05-21T11:07:18.746Z,0.55
2023-05-21T11:08:18.718Z,0.54
2023-05-21T11:09:18.722Z,0.74
2023-05-21T11:10:18.811Z,0.84
2023-05-21T11:11:18.916Z,0.69
2023-05-21T11:12:33.986Z,0.68
2023-05-21T11:14:54.379Z,0.50
2023-05-21T11:15:54.410Z,0.50
2023-05-21T11:16:54.705Z,0.50
2023-05-21T11:18:13.661Z,0.50
2023-05-21T11:19:11.430Z,0.50
2023-05-21T11:19:57.906Z,0.50
2023-05-21T11:20:57.941Z,0.50
2023-05-21T11:21:57.914Z,0.50
2023-05-21T11:22:57.884Z,0.50
2023-05-21T11:23:57.880Z,0.50
2023-05-21T11:24:57.897Z,0.52
2023-05-21T11:25:58.112Z,0.50
2023-05-21T11:26:57.848Z,0.47
2023-05-21T11:27:57.871Z,0.54
2023-05-21T11:28:57.828Z,0.52
2023-05-21T11:29:57.803Z,0.54
2023-05-21T11:30:57.890Z,0.52
2023-05-21T11:31:57.842Z,0.58
2023-05-21T11:32:58.032Z,0.58
2023-05-21T11:33:57.801Z,0.56
2023-05-21T11:34:57.806Z,0.55
2023-05-21T11:35:57.804Z,0.51
2023-05-21T11:36:57.799Z,0.53
2023-05-21T11:37:57.810Z,0.59
2023-05-21T11:38:57.781Z,0.62
2023-05-21T11:39:57.773Z,0.73
2023-05-21T11:40:58.188Z,0.82
2023-05-21T11:41:57.772Z,1.07
2023-05-21T11:42:57.769Z,1.19
2023-05-21T11:43:57.751Z,0.74
2023-05-21T11:44:57.785Z,0.62
2023-05-21T11:45:57.765Z,0.65
2023-05-21T11:46:57.759Z,0.70
2023-05-21T11:47:57.891Z,0.60
2023-05-21T11:48:57.904Z,0.63
2023-05-21T11:49:57.898Z,0.57
2023-05-21T11:50:58.155Z,0.63
2023-05-21T11:51:58.010Z,0.53
2023-05-21T11:52:58.063Z,0.49
2023-05-21T11:53:58.079Z,0.62
2023-05-21T11:54:58.037Z,0.58
2023-05-21T11:55:58.134Z,0.57
2023-05-21T11:56:58.156Z,0.84
2023-05-21T11:57:58.208Z,1.01
2023-05-21T11:58:58.248Z,0.87
2023-05-21T11:59:58.261Z,0.89
2023-05-21T12:00:58.651Z,0.80
2023-05-21T12:01:58.357Z,1.01
2023-05-21T12:02:58.502Z,1.47
2023-05-21T12:03:58.455Z,1.45
2023-05-21T12:04:58.472Z,1.57
2023-05-21T12:05:58.685Z,1.89
2023-05-21T12:06:58.500Z,2.06
2023-05-21T12:07:58.580Z,1.79
2023-05-21T12:08:58.674Z,1.46
2023-05-21T12:09:58.673Z,1.63
2023-05-21T12:10:59.202Z,2.11
2023-05-21T12:11:58.748Z,2.10
2023-05-21T12:12:58.809Z,1.32
2023-05-21T12:13:58.854Z,1.45
2023-05-21T12:14:58.831Z,1.41
2023-05-21T12:15:58.941Z,0.96
2023-05-21T12:16:58.927Z,0.75
2023-05-21T12:17:58.944Z,0.75
2023-05-21T12:18:59.001Z,0.79
2023-05-21T12:19:58.992Z,1.00
2023-05-21T12:20:59.052Z,1.11
2023-05-21T12:21:59.068Z,1.36
2023-05-21T12:22:59.252Z,1.25
2023-05-21T12:23:59.096Z,1.18
2023-05-21T12:24:59.134Z,1.02
2023-05-21T12:25:59.183Z,1.10
2023-05-21T12:26:59.188Z,1.15
2023-05-21T12:27:59.222Z,1.12
2023-05-21T12:28:59.230Z,1.02
2023-05-21T12:29:59.225Z,0.99
2023-05-21T12:30:59.684Z,0.96
2023-05-21T12:31:59.363Z,1.16
2023-05-21T12:32:59.422Z,1.37
2023-05-21T12:33:59.391Z,1.00
2023-05-21T12:34:59.412Z,1.19
2023-05-21T12:35:59.486Z,1.19
2023-05-21T12:36:59.505Z,0.98
2023-05-21T12:37:59.510Z,0.85
2023-05-21T12:38:59.554Z,0.92
2023-05-21T12:39:59.602Z,0.98
2023-05-21T12:40:59.679Z,1.05
2023-05-21T12:41:59.646Z,1.24
2023-05-21T12:42:59.664Z,1.22
2023-05-21T12:43:59.662Z,1.30
2023-05-21T12:44:59.699Z,1.26
2023-05-21T12:45:59.812Z,1.21
2023-05-21T12:46:59.761Z,1.20
2023-05-21T12:47:59.781Z,1.29
2023-05-21T12:48:59.769Z,1.68
2023-05-21T12:49:59.751Z,2.01
2023-05-21T12:50:59.790Z,2.76
2023-05-21T12:51:59.833Z,1.78
2023-05-21T12:52:59.824Z,1.30
2023-05-21T12:53:59.828Z,1.16
2023-05-21T12:54:59.829Z,1.11
2023-05-21T12:55:59.835Z,1.28
2023-05-21T12:56:59.846Z,0.95
2023-05-21T12:57:59.891Z,1.02
2023-05-21T12:58:59.899Z,1.24
2023-05-21T12:59:59.921Z,1.84
2023-05-21T13:02:19.123Z,0.50
2023-05-21T13:03:19.214Z,0.50
2023-05-21T13:04:19.175Z,0.50
2023-05-21T13:05:19.106Z,0.50
2023-05-21T13:06:19.308Z,0.50
2023-05-21T13:07:19.030Z,0.42
2023-05-21T13:08:19.052Z,0.47
2023-05-21T13:09:19.040Z,0.68
2023-05-21T13:10:19.202Z,0.76
2023-05-21T13:11:19.351Z,0.54
2023-05-21T13:12:19.066Z,0.50
2023-05-21T13:13:19.038Z,0.58
2023-05-21T13:14:19.040Z,0.67